createdAt,value
2017-12-24T00:00:44.283Z,10.00
2017-12-24T00:03:13.347Z,10.10
2017-12-24T00:05:41.651Z,10.10
2017-12-24T00:08:09.994Z,10.10
2017-12-24T00:10:38.304Z,10.10
2017-12-24T00:13:06.618Z,10.10
2017-12-24T00:15:34.959Z,10.00
2017-12-24T00:18:03.355Z,10.00
2017-12-24T00:20:31.706Z,10.10
2017-12-24T00:23:00.766Z,10.10
2017-12-24T00:25:29.071Z,10.00
2017-12-24T00:27:57.403Z,10.10
2017-12-24T00:30:26.503Z,10.10
2017-12-24T00:32:55.874Z,10.10
2017-12-24T00:35:24.242Z,10.10
2017-12-24T00:37:52.548Z,10.20
2017-12-24T00:40:20.847Z,10.20
2017-12-24T00:42:49.268Z,10.10
2017-12-24T00:45:17.607Z,10.20
2017-12-24T00:47:45.949Z,10.10
2017-12-24T00:50:15.012Z,10.10
2017-12-24T00:52:43.399Z,10.10
2017-12-24T00:55:11.769Z,10.20
2017-12-24T00:57:40.063Z,10.10
2017-12-24T01:00:08.363Z,10.10
2017-12-24T01:02:36.803Z,10.10
2017-12-24T01:05:05.107Z,10.10
2017-12-24T01:07:34.176Z,10.10
2017-12-24T01:10:02.524Z,10.00
2017-12-24T01:12:30.828Z,10.10
2017-12-24T01:14:59.124Z,10.10
2017-12-24T01:17:27.470Z,10.10
2017-12-24T01:19:56.539Z,10.10
2017-12-24T01:22:24.888Z,10.10
2017-12-24T01:24:53.247Z,10.10
2017-12-24T01:27:21.590Z,10.10
2017-12-24T01:29:49.939Z,10.10
2017-12-24T01:32:19.534Z,10.10
2017-12-24T01:34:47.880Z,10.10
2017-12-24T01:37:16.222Z,10.10
2017-12-24T01:39:45.847Z,10.10
2017-12-24T01:42:14.187Z,10.10
2017-12-24T01:44:42.483Z,10.10
2017-12-24T01:47:11.781Z,10.10
2017-12-24T01:49:40.127Z,10.10
2017-12-24T01:52:08.472Z,10.10
2017-12-24T01:54:36.775Z,10.10
2017-12-24T01:57:05.124Z,10.10
2017-12-24T01:59:34.188Z,10.10
2017-12-24T02:02:02.597Z,10.10
2017-12-24T02:04:31.875Z,10.10
2017-12-24T02:07:00.198Z,10.10
2017-12-24T02:09:28.504Z,10.10
2017-12-24T02:11:57.614Z,10.20
2017-12-24T02:14:26.739Z,10.20
2017-12-24T02:16:55.831Z,10.20
2017-12-24T02:19:24.896Z,10.20
2017-12-24T02:21:53.235Z,10.20
2017-12-24T02:24:22.317Z,10.20
2017-12-24T02:26:50.679Z,10.20
2017-12-24T02:29:19.126Z,10.20
2017-12-24T02:31:48.281Z,10.10
2017-12-24T02:34:16.622Z,10.10
2017-12-24T02:36:45.689Z,10.20
2017-12-24T02:39:14.026Z,10.20
2017-12-24T02:41:43.083Z,10.10
2017-12-24T02:44:11.423Z,10.10
2017-12-24T02:46:39.723Z,10.10
2017-12-24T02:49:08.062Z,10.20
2017-12-24T02:51:36.363Z,10.20
2017-12-24T02:54:04.695Z,10.20
2017-12-24T02:56:32.991Z,10.20
2017-12-24T02:59:01.430Z,10.20
2017-12-24T03:01:29.729Z,10.30
2017-12-24T03:03:58.024Z,10.20
2017-12-24T03:06:26.403Z,10.20
2017-12-24T03:08:54.746Z,10.20
2017-12-24T03:11:23.051Z,10.20
2017-12-24T03:13:51.391Z,10.30
2017-12-24T03:16:20.492Z,10.30
2017-12-24T03:18:48.819Z,10.20
2017-12-24T03:21:17.111Z,10.30
2017-12-24T03:23:45.446Z,10.30
2017-12-24T03:26:13.742Z,10.30
2017-12-24T03:28:42.126Z,10.30
2017-12-24T03:31:10.423Z,10.30
2017-12-24T03:33:38.714Z,10.30
2017-12-24T03:36:07.047Z,10.40
2017-12-24T03:38:35.386Z,10.30
2017-12-24T03:41:03.727Z,10.30
2017-12-24T03:43:32.023Z,10.30
2017-12-24T03:46:00.364Z,10.40
2017-12-24T03:48:28.699Z,10.40
2017-12-24T03:50:56.995Z,10.30
2017-12-24T03:53:25.381Z,10.30
2017-12-24T03:55:54.406Z,10.40
2017-12-24T03:58:22.738Z,10.30
2017-12-24T04:00:51.798Z,10.40
2017-12-24T04:03:20.130Z,10.30
2017-12-24T04:05:49.198Z,10.30
2017-12-24T04:08:17.535Z,10.20
2017-12-24T04:10:46.595Z,10.30
2017-12-24T04:13:14.927Z,10.30
2017-12-24T04:15:43.991Z,10.40
2017-12-24T04:18:12.323Z,10.40
2017-12-24T04:20:40.618Z,10.40
2017-12-24T04:23:09.747Z,10.30
2017-12-24T04:25:38.047Z,10.30
2017-12-24T04:28:06.346Z,10.30
2017-12-24T04:30:34.697Z,10.30
2017-12-24T04:33:03.761Z,10.30
2017-12-24T04:35:32.098Z,10.30
2017-12-24T04:38:01.162Z,10.40
2017-12-24T04:40:29.500Z,10.40
2017-12-24T04:42:58.563Z,10.40
2017-12-24T04:45:26.925Z,10.40
2017-12-24T04:47:55.209Z,10.30
2017-12-24T04:50:23.503Z,10.30
2017-12-24T04:52:51.847Z,10.30
2017-12-24T04:55:20.187Z,10.30
2017-12-24T04:57:48.609Z,10.30
2017-12-24T05:00:16.938Z,10.20
2017-12-24T05:02:46.043Z,10.20
2017-12-24T05:05:15.137Z,10.10
2017-12-24T05:07:43.475Z,10.10
2017-12-24T05:10:11.767Z,10.00
2017-12-24T05:12:40.099Z,9.90
2017-12-24T05:15:08.487Z,9.80
2017-12-24T05:17:36.817Z,9.70
2017-12-24T05:20:05.107Z,9.70
2017-12-24T05:22:33.450Z,9.70
2017-12-24T05:25:01.851Z,9.70
2017-12-24T05:27:31.648Z,9.60
2017-12-24T05:29:59.985Z,9.60
2017-12-24T05:32:29.282Z,9.60
2017-12-24T05:34:57.570Z,9.50
2017-12-24T05:37:27.372Z,9.60
2017-12-24T05:39:55.736Z,9.60
2017-12-24T05:42:24.067Z,9.60
2017-12-24T05:44:52.358Z,9.50
2017-12-24T05:47:20.694Z,9.50
2017-12-24T05:49:48.986Z,9.50
2017-12-24T05:52:17.323Z,9.50
2017-12-24T05:54:47.115Z,9.60
2017-12-24T05:57:15.467Z,9.60
2017-12-24T05:59:44.523Z,9.60
2017-12-24T06:02:12.819Z,9.60
2017-12-24T06:04:41.151Z,9.60
2017-12-24T06:07:10.212Z,9.70
2017-12-24T06:09:38.508Z,9.70
2017-12-24T06:12:06.911Z,9.70
2017-12-24T06:14:35.202Z,9.80
2017-12-24T06:17:03.495Z,9.80
2017-12-24T06:19:31.887Z,9.80
2017-12-24T06:22:00.279Z,9.70
2017-12-24T06:24:28.667Z,9.80
2017-12-24T06:26:57.006Z,9.80
2017-12-24T06:29:25.295Z,9.90
2017-12-24T06:31:53.742Z,9.90
2017-12-24T06:34:22.031Z,9.80
2017-12-24T06:36:50.371Z,9.80
2017-12-24T06:39:18.703Z,9.80
2017-12-24T06:41:47.042Z,9.80
2017-12-24T06:44:15.384Z,9.80
2017-12-24T06:46:43.718Z,9.80
2017-12-24T06:49:12.052Z,9.80
2017-12-24T06:51:40.399Z,9.80
2017-12-24T06:54:08.690Z,9.80
2017-12-24T06:56:36.982Z,9.80
2017-12-24T06:59:05.314Z,9.70
2017-12-24T07:01:33.610Z,9.70
2017-12-24T07:04:01.939Z,9.60
2017-12-24T07:06:30.232Z,9.70
2017-12-24T07:08:58.518Z,9.70
2017-12-24T07:11:26.864Z,9.70
2017-12-24T07:13:55.147Z,9.70
2017-12-24T07:16:23.483Z,9.60
2017-12-24T07:18:52.661Z,9.40
2017-12-24T07:21:20.947Z,9.40
2017-12-24T07:23:49.230Z,9.40
2017-12-24T07:26:19.083Z,9.30
2017-12-24T07:28:48.144Z,9.30
2017-12-24T07:31:16.435Z,9.30
2017-12-24T07:33:44.827Z,9.20
2017-12-24T07:36:13.118Z,9.20
2017-12-24T07:38:41.411Z,9.20
2017-12-24T07:41:09.818Z,9.30
2017-12-24T07:43:38.107Z,9.30
2017-12-24T07:46:06.402Z,9.30
2017-12-24T07:48:34.738Z,9.30
2017-12-24T07:51:03.027Z,9.40
2017-12-24T07:53:31.362Z,9.30
2017-12-24T07:55:59.690Z,9.30
2017-12-24T07:58:27.995Z,9.30
2017-12-24T08:00:56.331Z,9.40
2017-12-24T08:03:26.137Z,9.40
2017-12-24T08:05:54.463Z,9.40
2017-12-24T08:08:22.760Z,9.40
2017-12-24T08:10:52.027Z,9.40
2017-12-24T08:13:20.382Z,9.40
2017-12-24T08:15:48.670Z,9.50
2017-12-24T08:18:17.023Z,9.50
2017-12-24T08:20:45.347Z,9.50
2017-12-24T08:23:13.651Z,9.50
2017-12-24T08:25:41.995Z,9.60
2017-12-24T08:28:10.374Z,9.70
2017-12-24T08:30:39.662Z,9.70
2017-12-24T08:33:07.968Z,9.60
2017-12-24T08:35:36.370Z,9.70
2017-12-24T08:38:04.663Z,9.80
2017-12-24T08:40:32.999Z,9.80
2017-12-24T08:43:01.442Z,9.80
2017-12-24T08:45:29.790Z,9.80
2017-12-24T08:47:58.083Z,9.70
2017-12-24T08:50:26.366Z,9.70
2017-12-24T08:52:54.807Z,9.70
2017-12-24T08:55:23.098Z,9.80
2017-12-24T08:57:51.390Z,9.80
2017-12-24T09:00:19.727Z,9.80
2017-12-24T09:02:48.052Z,9.80
2017-12-24T09:05:16.343Z,9.90
2017-12-24T09:07:44.743Z,9.90
2017-12-24T09:10:13.039Z,9.90
2017-12-24T09:12:41.410Z,9.80
2017-12-24T09:15:09.711Z,9.80
2017-12-24T09:17:38.055Z,9.90
2017-12-24T09:20:06.362Z,9.90
2017-12-24T09:22:39.155Z,9.90
2017-12-24T09:25:09.306Z,10.00
2017-12-24T09:27:39.196Z,10.00
2017-12-24T09:30:07.605Z,10.00
2017-12-24T09:32:36.066Z,10.00
2017-12-24T09:35:04.522Z,9.90
2017-12-24T09:37:34.451Z,10.00
2017-12-24T09:40:02.920Z,10.00
2017-12-24T09:42:31.296Z,10.00
2017-12-24T09:44:59.723Z,10.00
2017-12-24T09:47:28.058Z,10.00
2017-12-24T09:49:56.399Z,9.90
2017-12-24T09:52:24.854Z,9.90
2017-12-24T09:54:53.220Z,10.00
2017-12-24T09:57:22.274Z,10.00
2017-12-24T09:59:50.739Z,9.90
2017-12-24T10:02:19.127Z,10.00
2017-12-24T10:04:47.603Z,10.00
2017-12-24T10:07:17.415Z,10.00
2017-12-24T10:09:46.542Z,10.10
2017-12-24T10:12:14.839Z,10.10
2017-12-24T10:14:43.191Z,10.10
2017-12-24T10:17:11.559Z,10.00
2017-12-24T10:19:39.850Z,9.90
2017-12-24T10:22:09.155Z,9.70
2017-12-24T10:24:37.849Z,9.70
2017-12-24T10:27:07.010Z,9.70
2017-12-24T10:29:36.289Z,9.60
2017-12-24T10:32:04.580Z,9.60
2017-12-24T10:34:32.919Z,9.60
2017-12-24T10:37:01.211Z,9.60
2017-12-24T10:39:29.515Z,9.60
2017-12-24T10:41:57.848Z,9.70
2017-12-24T10:44:26.244Z,9.60
2017-12-24T10:46:54.650Z,9.60
2017-12-24T10:49:23.746Z,9.60
2017-12-24T10:51:52.127Z,9.60
2017-12-24T10:54:20.469Z,9.60
2017-12-24T10:56:48.759Z,9.70
2017-12-24T10:59:17.105Z,9.60
2017-12-24T11:01:45.494Z,9.70
2017-12-24T11:04:13.841Z,9.80
2017-12-24T11:06:42.172Z,9.80
2017-12-24T11:09:10.507Z,9.80
2017-12-24T11:11:38.799Z,9.80
2017-12-24T11:14:07.246Z,9.80
2017-12-24T11:16:35.539Z,9.80
2017-12-24T11:19:03.874Z,9.80
2017-12-24T11:21:32.215Z,10.00
2017-12-24T11:24:00.588Z,10.00
2017-12-24T11:26:29.063Z,10.00
2017-12-24T11:28:57.407Z,10.00
2017-12-24T11:31:26.459Z,9.90
2017-12-24T11:33:54.798Z,9.90
2017-12-24T11:36:23.872Z,10.00
2017-12-24T11:38:53.127Z,10.00
2017-12-24T11:41:22.235Z,9.90
2017-12-24T11:43:51.290Z,9.90
2017-12-24T11:46:19.654Z,9.90
2017-12-24T11:48:47.951Z,9.80
2017-12-24T11:51:16.243Z,9.80
2017-12-24T11:53:44.580Z,9.90
2017-12-24T11:56:12.875Z,9.90
2017-12-24T11:58:41.930Z,9.90
2017-12-24T12:01:10.265Z,9.90
2017-12-24T12:03:38.591Z,9.90
2017-12-24T12:06:06.888Z,10.00
2017-12-24T12:08:35.240Z,9.90
2017-12-24T12:11:03.532Z,10.00
2017-12-24T12:13:32.599Z,10.00
2017-12-24T12:16:00.948Z,10.00
2017-12-24T12:18:30.007Z,10.10
2017-12-24T12:20:58.378Z,10.10
2017-12-24T12:23:26.674Z,10.00
2017-12-24T12:25:55.939Z,10.10
2017-12-24T12:28:25.051Z,10.10
2017-12-24T12:30:54.159Z,10.10
2017-12-24T12:33:23.218Z,10.20
2017-12-24T12:35:51.531Z,10.20
2017-12-24T12:38:19.878Z,10.30
2017-12-24T12:40:48.415Z,10.20
2017-12-24T12:43:16.719Z,10.30
2017-12-24T12:45:45.787Z,10.30
2017-12-24T12:48:14.147Z,10.30
2017-12-24T12:50:42.943Z,10.30
2017-12-24T12:53:11.243Z,10.30
2017-12-24T12:55:39.903Z,10.40
2017-12-24T12:58:09.084Z,10.30
2017-12-24T13:00:38.311Z,10.30
2017-12-24T13:03:06.638Z,10.30
2017-12-24T13:05:34.967Z,10.20
2017-12-24T13:08:03.263Z,10.30
2017-12-24T13:10:31.614Z,10.30
2017-12-24T13:12:59.957Z,10.40
2017-12-24T13:15:28.307Z,10.40
2017-12-24T13:17:56.652Z,10.40
2017-12-24T13:20:24.952Z,10.30
2017-12-24T13:22:54.053Z,10.30
2017-12-24T13:25:23.255Z,10.30
2017-12-24T13:27:51.550Z,10.30
2017-12-24T13:30:20.656Z,10.40
2017-12-24T13:32:48.943Z,10.40
2017-12-24T13:35:18.055Z,10.30
2017-12-24T13:37:47.128Z,10.30
2017-12-24T13:40:15.468Z,10.30
2017-12-24T13:42:44.576Z,10.40
2017-12-24T13:45:13.755Z,10.40
2017-12-24T13:47:42.122Z,10.40
2017-12-24T13:50:10.427Z,10.30
2017-12-24T13:52:39.206Z,10.40
2017-12-24T13:55:07.546Z,10.40
2017-12-24T13:57:36.607Z,10.40
2017-12-24T14:00:04.936Z,10.40
2017-12-24T14:02:34.001Z,10.40
2017-12-24T14:05:02.428Z,10.40
2017-12-24T14:07:30.722Z,10.40
2017-12-24T14:09:59.047Z,10.40
2017-12-24T14:12:28.339Z,10.40
2017-12-24T14:14:57.451Z,10.50
2017-12-24T14:17:26.563Z,10.50
2017-12-24T14:19:55.628Z,10.50
2017-12-24T14:22:24.951Z,10.50
2017-12-24T14:24:54.234Z,10.50
2017-12-24T14:27:22.527Z,10.50
2017-12-24T14:29:50.878Z,10.50
2017-12-24T14:32:19.174Z,10.50
2017-12-24T14:34:47.463Z,10.50
2017-12-24T14:37:15.800Z,10.50
2017-12-24T14:39:44.088Z,10.50
2017-12-24T14:42:12.423Z,10.50
2017-12-24T14:44:41.479Z,10.50
2017-12-24T14:47:09.997Z,10.50
2017-12-24T14:49:38.383Z,10.40
2017-12-24T14:52:06.714Z,10.50
2017-12-24T14:54:35.010Z,10.50
2017-12-24T14:57:03.351Z,10.50
2017-12-24T14:59:31.654Z,10.50
2017-12-24T15:02:00.140Z,10.50
2017-12-24T15:04:29.208Z,10.60
2017-12-24T15:06:57.501Z,10.50
2017-12-24T15:09:25.927Z,10.60
2017-12-24T15:11:54.219Z,10.60
2017-12-24T15:14:22.511Z,10.50
2017-12-24T15:16:51.610Z,10.60
2017-12-24T15:19:19.903Z,10.50
2017-12-24T15:21:49.770Z,10.50
2017-12-24T15:24:18.047Z,10.50
2017-12-24T15:26:47.551Z,10.50
2017-12-24T15:29:16.643Z,10.60
2017-12-24T15:31:44.970Z,10.60
2017-12-24T15:34:13.308Z,10.70
2017-12-24T15:36:41.650Z,10.60
2017-12-24T15:39:10.699Z,10.60
2017-12-24T15:41:39.007Z,10.50
2017-12-24T15:44:09.242Z,10.60
2017-12-24T15:46:39.047Z,10.60
2017-12-24T15:49:07.350Z,10.50
2017-12-24T15:51:35.709Z,10.60
2017-12-24T15:54:05.375Z,10.60
2017-12-24T15:56:33.663Z,10.60
2017-12-24T15:59:02.014Z,10.60
2017-12-24T16:01:30.338Z,10.60
2017-12-24T16:04:00.140Z,10.60
2017-12-24T16:06:28.483Z,10.60
2017-12-24T16:08:57.535Z,10.60
2017-12-24T16:11:25.823Z,10.60
2017-12-24T16:13:54.163Z,10.50
2017-12-24T16:16:23.258Z,10.70
2017-12-24T16:18:52.322Z,10.70
2017-12-24T16:21:20.607Z,10.70
2017-12-24T16:23:49.027Z,10.70
2017-12-24T16:26:17.327Z,10.60
2017-12-24T16:28:45.659Z,10.60
2017-12-24T16:31:13.979Z,10.60
2017-12-24T16:33:42.343Z,10.60
2017-12-24T16:36:10.627Z,10.60
2017-12-24T16:38:39.075Z,10.70
2017-12-24T16:41:07.377Z,10.60
2017-12-24T16:43:35.746Z,10.60
2017-12-24T16:46:04.844Z,10.60
2017-12-24T16:48:33.243Z,10.50
2017-12-24T16:51:01.578Z,10.60
2017-12-24T16:53:29.900Z,10.60
2017-12-24T16:55:58.191Z,10.60
2017-12-24T16:58:26.531Z,10.60
2017-12-24T17:00:55.582Z,10.60
2017-12-24T17:03:23.961Z,10.60
2017-12-24T17:05:53.024Z,10.60
2017-12-24T17:08:21.358Z,10.60
2017-12-24T17:10:49.675Z,10.60
2017-12-24T17:13:18.017Z,10.50
2017-12-24T17:15:46.307Z,10.50
2017-12-24T17:18:15.376Z,10.30
2017-12-24T17:20:43.707Z,10.30
2017-12-24T17:23:12.043Z,10.40
2017-12-24T17:25:40.384Z,10.40
2017-12-24T17:28:08.679Z,10.40
2017-12-24T17:30:37.011Z,10.40
2017-12-24T17:33:05.299Z,10.40
2017-12-24T17:35:33.628Z,10.40
2017-12-24T17:38:02.679Z,10.30
2017-12-24T17:40:31.039Z,10.30
2017-12-24T17:42:59.324Z,10.20
2017-12-24T17:45:27.618Z,10.30
2017-12-24T17:47:55.947Z,10.30
2017-12-24T17:50:24.268Z,10.20
2017-12-24T17:52:52.556Z,10.20
2017-12-24T17:55:20.934Z,10.20
2017-12-24T17:57:49.227Z,10.20
2017-12-24T18:00:17.550Z,10.20
2017-12-24T18:02:46.622Z,10.20
2017-12-24T18:05:14.950Z,10.20
2017-12-24T18:07:43.275Z,10.10
2017-12-24T18:10:11.602Z,10.20
2017-12-24T18:12:39.895Z,10.20
2017-12-24T18:15:08.227Z,10.20
2017-12-24T18:17:36.567Z,10.20
2017-12-24T18:20:05.359Z,10.20
2017-12-24T18:22:33.650Z,10.20
2017-12-24T18:25:02.887Z,10.20
2017-12-24T18:27:31.991Z,10.10
2017-12-24T18:30:01.048Z,10.20
2017-12-24T18:32:29.334Z,10.20
2017-12-24T18:34:57.667Z,10.10
2017-12-24T18:37:26.004Z,10.10
2017-12-24T18:39:55.283Z,10.20
2017-12-24T18:42:24.383Z,10.20
2017-12-24T18:44:53.471Z,10.10
2017-12-24T18:47:21.759Z,10.10
2017-12-24T18:49:50.091Z,10.20
2017-12-24T18:52:18.441Z,10.20
2017-12-24T18:54:46.772Z,10.20
2017-12-24T18:57:15.862Z,10.20
2017-12-24T18:59:44.987Z,10.10
2017-12-24T19:02:13.364Z,10.10
2017-12-24T19:04:42.448Z,10.20
2017-12-24T19:07:10.738Z,10.20
2017-12-24T19:09:39.075Z,10.30
2017-12-24T19:12:07.354Z,10.20
2017-12-24T19:14:35.703Z,10.20
2017-12-24T19:17:04.755Z,10.20
2017-12-24T19:19:33.046Z,10.20
2017-12-24T19:22:01.379Z,10.20
2017-12-24T19:24:29.663Z,10.10
2017-12-24T19:26:57.990Z,10.20
2017-12-24T19:29:27.084Z,10.20
2017-12-24T19:31:55.415Z,10.20
2017-12-24T19:34:23.717Z,10.20
2017-12-24T19:36:52.049Z,10.20
2017-12-24T19:39:20.435Z,10.30
2017-12-24T19:41:48.826Z,10.20
2017-12-24T19:44:18.667Z,10.30
2017-12-24T19:46:47.730Z,10.20
2017-12-24T19:49:16.019Z,10.20
2017-12-24T19:51:44.355Z,10.20
2017-12-24T19:54:13.410Z,10.20
2017-12-24T19:56:41.759Z,10.20
2017-12-24T19:59:10.811Z,10.30
2017-12-24T20:01:39.279Z,10.30
2017-12-24T20:04:07.643Z,10.30
2017-12-24T20:06:35.927Z,10.30
2017-12-24T20:09:05.028Z,10.30
2017-12-24T20:11:34.867Z,10.20
2017-12-24T20:14:03.923Z,10.20
2017-12-24T20:16:32.282Z,10.20
2017-12-24T20:19:00.639Z,10.20
2017-12-24T20:21:28.935Z,10.20
2017-12-24T20:23:57.264Z,10.30
2017-12-24T20:26:25.551Z,10.30
2017-12-24T20:28:53.910Z,10.20
2017-12-24T20:31:22.958Z,10.40
2017-12-24T20:33:51.290Z,10.30
2017-12-24T20:36:19.575Z,10.40
2017-12-24T20:38:49.471Z,10.30
2017-12-24T20:41:17.780Z,10.30
2017-12-24T20:43:46.072Z,10.30
2017-12-24T20:46:14.403Z,10.30
2017-12-24T20:48:43.463Z,10.30
2017-12-24T20:51:11.778Z,10.30
2017-12-24T20:53:40.087Z,10.30
2017-12-24T20:56:09.163Z,10.30
2017-12-24T20:58:37.455Z,10.30
2017-12-24T21:01:05.883Z,10.30
2017-12-24T21:03:34.181Z,10.40
2017-12-24T21:06:02.467Z,10.50
2017-12-24T21:08:30.819Z,10.40
2017-12-24T21:10:59.155Z,10.50
2017-12-24T21:13:28.680Z,10.40
2017-12-24T21:15:57.105Z,10.40
2017-12-24T21:18:25.387Z,10.40
2017-12-24T21:20:53.732Z,10.30
2017-12-24T21:23:22.826Z,10.40
2017-12-24T21:25:51.934Z,10.40
2017-12-24T21:28:20.316Z,10.40
2017-12-24T21:30:49.415Z,10.40
2017-12-24T21:33:17.789Z,10.40
2017-12-24T21:35:46.070Z,10.40
2017-12-24T21:38:14.391Z,10.40
2017-12-24T21:40:42.679Z,10.50
2017-12-24T21:43:11.059Z,10.50
2017-12-24T21:45:39.355Z,10.40
2017-12-24T21:48:07.708Z,10.50
2017-12-24T21:50:36.966Z,10.40
2017-12-24T21:53:06.063Z,10.40
2017-12-24T21:55:35.862Z,10.50
2017-12-24T21:58:04.203Z,10.50
2017-12-24T22:00:33.280Z,10.50
2017-12-24T22:03:01.570Z,10.50
2017-12-24T22:05:29.907Z,10.40
2017-12-24T22:07:58.247Z,10.40
2017-12-24T22:10:26.588Z,10.40
2017-12-24T22:12:54.872Z,10.40
2017-12-24T22:15:23.154Z,10.40
2017-12-24T22:17:51.486Z,10.50
2017-12-24T22:20:19.779Z,10.40
2017-12-24T22:22:48.106Z,10.50
2017-12-24T22:25:17.243Z,10.40
2017-12-24T22:27:45.582Z,10.40
2017-12-24T22:30:14.821Z,10.40
2017-12-24T22:32:44.111Z,10.20
2017-12-24T22:35:12.451Z,10.10
2017-12-24T22:37:40.742Z,10.10
2017-12-24T22:40:10.170Z,10.20
2017-12-24T22:42:38.590Z,10.20
2017-12-24T22:45:06.892Z,10.20
2017-12-24T22:47:35.237Z,10.20
2017-12-24T22:50:03.548Z,10.20
2017-12-24T22:52:31.871Z,10.20
2017-12-24T22:55:01.075Z,10.20
2017-12-24T22:57:29.406Z,10.20
2017-12-24T22:59:57.745Z,10.30
2017-12-24T23:02:26.135Z,10.30
2017-12-24T23:04:54.548Z,10.30
2017-12-24T23:07:23.670Z,10.30
2017-12-24T23:09:53.831Z,10.30
2017-12-24T23:12:22.129Z,10.30
2017-12-24T23:14:50.541Z,10.40
2017-12-24T23:17:19.749Z,10.40
2017-12-24T23:19:48.150Z,10.40
2017-12-24T23:22:16.455Z,10.50
2017-12-24T23:24:44.862Z,10.50
2017-12-24T23:27:13.979Z,10.60
2017-12-24T23:29:42.280Z,10.60
2017-12-24T23:32:10.618Z,10.60
2017-12-24T23:34:38.946Z,10.60
2017-12-24T23:37:07.234Z,10.60
2017-12-24T23:39:35.567Z,10.60
2017-12-24T23:42:03.899Z,10.60
2017-12-24T23:44:32.183Z,10.50
2017-12-24T23:47:00.534Z,10.50
2017-12-24T23:49:28.847Z,10.60
2017-12-24T23:51:57.201Z,10.50
2017-12-24T23:54:25.521Z,10.50
2017-12-24T23:56:53.838Z,10.60
2017-12-24T23:59:22.887Z,10.60
